createdAt,value
2022-12-31T00:01:20.673Z,99727.56
2022-12-31T00:04:05.909Z,99729.34
2022-12-31T00:06:50.585Z,99738.91
2022-12-31T00:09:35.611Z,99745.00
2022-12-31T00:12:20.893Z,99742.44
2022-12-31T00:15:06.490Z,99746.75
2022-12-31T00:17:51.647Z,99758.00
2022-12-31T00:20:41.267Z,99756.31
2022-12-31T00:23:26.397Z,99764.91
2022-12-31T00:26:17.804Z,99752.81
2022-12-31T00:29:04.567Z,99745.94
2022-12-31T00:31:49.874Z,99749.38
2022-12-31T00:34:34.876Z,99735.56
2022-12-31T00:37:19.868Z,99726.91
2022-12-31T00:40:05.820Z,99733.81
2022-12-31T00:42:50.826Z,99726.00
2022-12-31T00:45:36.218Z,99730.34
2022-12-31T00:48:21.833Z,99728.59
2022-12-31T00:51:10.744Z,99723.41
2022-12-31T00:53:57.199Z,99729.47
2022-12-31T00:56:42.224Z,99716.53
2022-12-31T00:59:27.115Z,99712.16
2022-12-31T01:02:12.791Z,99711.31
2022-12-31T01:04:57.954Z,99704.38
2022-12-31T01:07:42.941Z,99710.38
2022-12-31T01:10:29.045Z,99713.00
2022-12-31T01:13:14.225Z,99714.72
2022-12-31T01:16:06.844Z,99706.97
2022-12-31T01:18:52.529Z,99713.00
2022-12-31T01:21:39.556Z,99713.00
2022-12-31T01:24:24.898Z,99720.84
2022-12-31T01:27:10.029Z,99706.13
2022-12-31T01:29:55.222Z,99716.50
2022-12-31T01:32:39.959Z,99723.44
2022-12-31T01:35:25.564Z,99715.66
2022-12-31T01:38:10.774Z,99711.34
2022-12-31T01:40:55.839Z,99715.69
2022-12-31T01:43:56.308Z,99716.50
2022-12-31T01:46:49.279Z,99716.50
2022-12-31T01:49:40.682Z,99723.47
2022-12-31T01:52:32.492Z,99713.09
2022-12-31T01:55:38.435Z,99714.81
2022-12-31T01:58:38.246Z,99709.66
2022-12-31T02:01:30.860Z,99719.16
2022-12-31T02:04:16.491Z,99703.63
2022-12-31T02:07:07.066Z,99698.44
2022-12-31T02:09:53.599Z,99687.22
2022-12-31T02:12:39.882Z,99690.69
2022-12-31T02:15:47.150Z,99680.34
2022-12-31T02:18:49.508Z,99676.00
2022-12-31T02:22:10.241Z,99664.78
2022-12-31T02:25:14.040Z,99655.31
2022-12-31T02:28:09.765Z,99661.31
2022-12-31T02:31:05.892Z,99651.84
2022-12-31T02:33:57.839Z,99652.69
2022-12-31T02:36:47.275Z,99653.56
2022-12-31T02:39:33.980Z,99649.28
2022-12-31T02:42:19.361Z,99644.06
2022-12-31T02:45:04.910Z,99641.47
2022-12-31T02:47:55.813Z,99638.03
2022-12-31T02:50:47.359Z,99635.41
2022-12-31T02:54:02.404Z,99638.00
2022-12-31T02:57:04.570Z,99627.63
2022-12-31T03:00:01.659Z,99620.69
2022-12-31T03:02:49.001Z,99621.53
2022-12-31T03:05:40.086Z,99628.41
2022-12-31T03:08:26.576Z,99621.50
2022-12-31T03:11:11.790Z,99611.91
2022-12-31T03:13:57.155Z,99613.53
2022-12-31T03:16:42.106Z,99597.94
2022-12-31T03:19:27.453Z,99608.22
2022-12-31T03:22:13.331Z,99601.25
2022-12-31T03:25:02.033Z,99599.44
2022-12-31T03:27:47.593Z,99588.97
2022-12-31T03:30:34.350Z,99602.63
2022-12-31T03:33:20.491Z,99602.56
2022-12-31T03:36:12.600Z,99604.88
2022-12-31T03:38:57.650Z,99587.44
2022-12-31T03:41:43.000Z,99598.63
2022-12-31T03:44:28.304Z,99590.69
2022-12-31T03:47:13.750Z,99575.81
2022-12-31T03:49:59.139Z,99563.53
2022-12-31T03:52:44.926Z,99561.72
2022-12-31T03:55:29.915Z,99570.03
2022-12-31T03:58:15.196Z,99539.34
2022-12-31T04:01:00.762Z,99530.97
2022-12-31T04:03:45.947Z,99518.66
2022-12-31T04:06:31.388Z,99545.38
2022-12-31T04:09:16.683Z,99546.38
2022-12-31T04:12:02.155Z,99564.78
2022-12-31T04:14:47.265Z,99588.28
2022-12-31T04:17:32.919Z,99622.47
2022-12-31T04:20:18.503Z,99656.56
2022-12-31T04:23:03.493Z,99674.09
2022-12-31T04:25:48.932Z,99683.63
2022-12-31T04:28:34.157Z,99673.38
2022-12-31T04:31:19.641Z,99677.19
2022-12-31T04:34:05.026Z,99677.31
2022-12-31T04:36:49.867Z,99679.19
2022-12-31T04:39:34.834Z,99714.69
2022-12-31T04:42:20.245Z,99674.06
2022-12-31T04:45:06.617Z,99683.63
2022-12-31T04:47:51.436Z,99692.31
2022-12-31T04:50:36.788Z,99691.53
2022-12-31T04:53:22.317Z,99688.91
2022-12-31T04:56:09.004Z,99697.56
2022-12-31T04:58:54.484Z,99680.25
2022-12-31T05:01:39.997Z,99686.34
2022-12-31T05:04:25.326Z,99704.47
2022-12-31T05:07:10.498Z,99689.81
2022-12-31T05:09:55.324Z,99688.94
2022-12-31T05:12:40.163Z,99694.97
2022-12-31T05:15:25.451Z,99702.72
2022-12-31T05:18:10.449Z,99700.16
2022-12-31T05:20:55.476Z,99699.28
2022-12-31T05:23:40.701Z,99707.91
2022-12-31T05:26:25.947Z,99720.00
2022-12-31T05:29:11.207Z,99709.59
2022-12-31T05:31:56.255Z,99708.69
2022-12-31T05:34:41.435Z,99701.72
2022-12-31T05:37:28.757Z,99700.66
2022-12-31T05:40:14.091Z,99694.59
2022-12-31T05:42:59.096Z,99697.19
2022-12-31T05:45:44.044Z,99693.63
2022-12-31T05:48:29.635Z,99692.72
2022-12-31T05:51:14.506Z,99690.97
2022-12-31T05:53:59.400Z,99681.41
2022-12-31T05:56:44.322Z,99675.31
2022-12-31T05:59:30.346Z,99674.41
2022-12-31T06:02:15.703Z,99685.56
2022-12-31T06:05:01.313Z,99687.19
2022-12-31T06:07:46.625Z,99682.69
2022-12-31T06:10:31.522Z,99686.06
2022-12-31T06:13:16.883Z,99670.41
2022-12-31T06:16:06.975Z,99680.56
2022-12-31T06:18:52.422Z,99669.16
2022-12-31T06:21:37.659Z,99660.34
2022-12-31T06:24:23.938Z,99642.81
2022-12-31T06:27:09.348Z,99641.88
2022-12-31T06:29:54.498Z,99640.75
2022-12-31T06:32:39.942Z,99621.50
2022-12-31T06:35:25.268Z,99626.28
2022-12-31T06:38:10.071Z,99608.56
2022-12-31T06:40:55.323Z,99609.13
2022-12-31T06:43:41.336Z,99586.53
2022-12-31T06:46:26.787Z,99568.34
2022-12-31T06:49:12.351Z,99591.56
2022-12-31T06:51:57.611Z,99577.72
2022-12-31T06:54:43.000Z,99539.50
2022-12-31T06:57:28.384Z,99538.72
2022-12-31T07:00:14.390Z,99556.13
2022-12-31T07:03:15.510Z,99571.16
2022-12-31T07:06:16.239Z,99598.16
2022-12-31T07:09:13.446Z,99640.97
2022-12-31T07:12:28.398Z,99648.78
2022-12-31T07:15:13.279Z,99626.31
2022-12-31T07:18:20.249Z,99661.31
2022-12-31T07:21:12.175Z,99665.91
2022-12-31T07:23:57.723Z,99668.84
2022-12-31T07:27:18.595Z,99661.38
2022-12-31T07:30:18.063Z,99695.19
2022-12-31T07:33:19.539Z,99702.03
2022-12-31T07:36:26.704Z,99677.06
2022-12-31T07:39:32.530Z,99655.25
2022-12-31T07:42:29.622Z,99639.22
2022-12-31T07:45:24.394Z,99631.78
2022-12-31T07:48:22.476Z,99618.03
2022-12-31T07:51:10.275Z,99638.53
2022-12-31T07:53:55.343Z,99611.28
2022-12-31T07:56:40.659Z,99642.97
2022-12-31T07:59:48.800Z,99637.22
2022-12-31T08:02:56.877Z,99618.19
2022-12-31T08:05:53.993Z,99612.06
2022-12-31T08:09:00.612Z,99633.63
2022-12-31T08:11:51.566Z,99652.09
2022-12-31T08:14:45.355Z,99642.69
2022-12-31T08:17:30.560Z,99649.97
2022-12-31T08:20:16.857Z,99665.63
2022-12-31T08:23:24.513Z,99627.09
2022-12-31T08:26:34.943Z,99655.41
2022-12-31T08:29:43.705Z,99653.31
2022-12-31T08:32:45.413Z,99679.44
2022-12-31T08:35:54.762Z,99645.88
2022-12-31T08:38:46.135Z,99646.13
2022-12-31T08:41:42.884Z,99645.34
2022-12-31T08:44:44.208Z,99656.66
2022-12-31T08:47:44.616Z,99652.03
2022-12-31T08:50:30.553Z,99648.47
2022-12-31T08:53:16.180Z,99643.44
2022-12-31T08:56:17.287Z,99666.28
2022-12-31T08:59:14.713Z,99660.69
2022-12-31T09:02:18.761Z,99677.34
2022-12-31T09:05:13.188Z,99699.53
2022-12-31T09:08:26.479Z,99662.22
2022-12-31T09:11:20.819Z,99686.66
2022-12-31T09:14:48.115Z,99652.44
2022-12-31T09:17:38.896Z,99671.13
2022-12-31T09:20:26.107Z,99688.13
2022-12-31T09:23:12.620Z,99673.28
2022-12-31T09:26:13.104Z,99664.47
2022-12-31T09:29:20.043Z,99682.59
2022-12-31T09:32:19.890Z,99661.75
2022-12-31T09:35:15.202Z,99661.56
2022-12-31T09:38:38.759Z,99659.03
2022-12-31T09:41:33.452Z,99687.88
2022-12-31T09:44:24.844Z,99695.53
2022-12-31T09:47:31.503Z,99665.09
2022-12-31T09:50:42.018Z,99685.59
2022-12-31T09:53:41.199Z,99676.81
2022-12-31T09:56:36.244Z,99692.41
2022-12-31T09:59:38.188Z,99657.44
2022-12-31T10:02:29.343Z,99677.91
2022-12-31T10:06:05.857Z,99719.50
2022-12-31T10:09:24.196Z,99729.91
2022-12-31T10:12:33.174Z,99705.72
2022-12-31T10:15:36.875Z,99725.06
2022-12-31T10:18:42.882Z,99761.56
2022-12-31T10:21:43.506Z,99745.28
2022-12-31T10:25:01.113Z,99771.63
2022-12-31T10:28:17.162Z,99775.06
2022-12-31T10:31:08.266Z,99853.63
2022-12-31T10:33:53.308Z,99789.19
2022-12-31T10:37:03.457Z,99822.19
2022-12-31T10:40:29.310Z,99811.00
2022-12-31T10:43:52.405Z,99825.75
2022-12-31T10:47:09.084Z,99816.09
2022-12-31T10:50:32.005Z,99828.00
2022-12-31T10:54:14.628Z,99836.84
2022-12-31T10:57:39.539Z,99849.53
2022-12-31T11:00:30.718Z,99878.28
2022-12-31T11:03:43.920Z,99869.47
2022-12-31T11:06:29.359Z,99851.25
2022-12-31T11:09:20.787Z,99899.03
2022-12-31T11:12:28.601Z,99849.41
2022-12-31T11:15:22.794Z,99851.09
2022-12-31T11:18:29.698Z,99849.22
2022-12-31T11:21:41.491Z,99839.47
2022-12-31T11:24:56.420Z,99814.16
2022-12-31T11:28:03.109Z,99815.63
2022-12-31T11:31:06.492Z,99873.28
2022-12-31T11:33:54.818Z,99822.50
2022-12-31T11:36:43.264Z,99808.66
2022-12-31T11:39:49.035Z,99804.38
2022-12-31T11:43:00.978Z,99792.06
2022-12-31T11:45:50.558Z,99762.38
2022-12-31T11:48:48.265Z,99773.41
2022-12-31T11:51:58.502Z,99748.47
2022-12-31T11:54:55.944Z,99734.53
2022-12-31T11:57:48.388Z,99766.13
2022-12-31T12:00:34.099Z,99774.69
2022-12-31T12:03:19.412Z,99812.38
2022-12-31T12:06:04.922Z,99773.16
2022-12-31T12:08:50.953Z,99823.06
2022-12-31T12:11:39.253Z,99807.25
2022-12-31T12:14:35.768Z,99816.91
2022-12-31T12:17:30.187Z,99801.31
2022-12-31T12:20:30.134Z,99789.03
2022-12-31T12:23:22.618Z,99788.03
2022-12-31T12:26:26.299Z,99785.31
2022-12-31T12:29:14.397Z,99786.41
2022-12-31T12:32:17.472Z,99805.72
2022-12-31T12:35:14.269Z,99811.63
2022-12-31T12:38:03.893Z,99809.88
2022-12-31T12:41:01.500Z,99846.38
2022-12-31T12:43:47.231Z,99803.69
2022-12-31T12:46:47.771Z,99841.84
2022-12-31T12:49:43.932Z,99795.78
2022-12-31T12:52:53.869Z,99823.84
2022-12-31T12:56:08.851Z,99809.25
2022-12-31T12:59:12.520Z,99795.94
2022-12-31T13:02:16.589Z,99826.38
2022-12-31T13:05:41.229Z,99792.25
2022-12-31T13:08:35.764Z,99793.25
2022-12-31T13:11:36.267Z,99796.00
2022-12-31T13:14:36.951Z,99807.25
2022-12-31T13:17:47.034Z,99831.88
2022-12-31T13:20:40.388Z,99825.94
2022-12-31T13:23:44.331Z,99830.09
2022-12-31T13:27:11.907Z,99833.16
2022-12-31T13:30:01.525Z,99819.16
2022-12-31T13:33:01.946Z,99859.34
2022-12-31T13:35:56.067Z,99865.84
2022-12-31T13:38:57.946Z,99883.44
2022-12-31T13:41:55.183Z,99902.41
2022-12-31T13:44:49.413Z,99904.50
2022-12-31T13:47:41.991Z,99930.75
2022-12-31T13:50:33.576Z,99916.31
2022-12-31T13:53:25.971Z,99966.94
2022-12-31T13:56:19.774Z,99950.56
2022-12-31T13:59:07.131Z,99954.84
2022-12-31T14:02:15.378Z,99927.78
2022-12-31T14:05:18.760Z,99934.94
2022-12-31T14:08:06.156Z,99927.19
2022-12-31T14:11:05.004Z,99956.75
2022-12-31T14:14:11.818Z,99946.41
2022-12-31T14:17:09.159Z,99971.75
2022-12-31T14:20:06.282Z,99964.00
2022-12-31T14:23:09.740Z,99970.09
2022-12-31T14:26:02.985Z,99984.25
2022-12-31T14:28:56.661Z,100005.25
2022-12-31T14:31:44.880Z,99998.38
2022-12-31T14:34:33.314Z,100010.03
2022-12-31T14:38:05.387Z,100015.28
2022-12-31T14:41:09.822Z,100028.25
2022-12-31T14:44:22.732Z,100020.44
2022-12-31T14:47:16.765Z,100028.16
2022-12-31T14:50:09.744Z,100020.44
2022-12-31T14:52:56.331Z,100024.97
2022-12-31T14:55:41.564Z,100046.66
2022-12-31T14:58:33.306Z,100006.72
2022-12-31T15:01:18.147Z,100016.25
2022-12-31T15:04:14.556Z,100013.66
2022-12-31T15:07:33.434Z,100014.53
2022-12-31T15:10:36.527Z,100013.59
2022-12-31T15:14:03.335Z,100002.06
2022-12-31T15:16:48.182Z,99989.13
2022-12-31T15:19:51.718Z,99987.03
2022-12-31T15:22:43.537Z,99957.59
2022-12-31T15:25:41.396Z,99967.34
2022-12-31T15:28:32.908Z,99972.41
2022-12-31T15:31:20.731Z,99971.69
2022-12-31T15:34:23.481Z,99976.03
2022-12-31T15:37:34.879Z,99971.59
2022-12-31T15:40:22.017Z,99981.31
2022-12-31T15:43:45.205Z,99968.28
2022-12-31T15:46:37.644Z,99966.56
2022-12-31T15:49:24.415Z,99989.97
2022-12-31T15:52:25.011Z,99986.53
2022-12-31T15:55:45.896Z,99975.09
2022-12-31T15:58:34.390Z,99966.44
2022-12-31T16:01:22.829Z,99950.69
2022-12-31T16:04:21.190Z,99954.09
2022-12-31T16:07:06.435Z,99966.44
2022-12-31T16:09:54.747Z,99959.59
2022-12-31T16:12:44.562Z,99959.56
2022-12-31T16:15:32.757Z,99979.41
2022-12-31T16:18:22.844Z,99972.72
2022-12-31T16:21:26.819Z,99976.81
2022-12-31T16:24:32.635Z,99976.94
2022-12-31T16:27:17.806Z,99981.31
2022-12-31T16:30:18.543Z,99984.94
2022-12-31T16:33:06.360Z,99992.84
2022-12-31T16:35:59.727Z,100000.66
2022-12-31T16:38:45.039Z,99997.22
2022-12-31T16:41:42.187Z,100011.22
2022-12-31T16:44:29.462Z,100007.63
2022-12-31T16:47:36.016Z,100024.94
2022-12-31T16:50:24.143Z,100017.28
2022-12-31T16:53:12.919Z,100020.81
2022-12-31T16:56:06.731Z,100014.75
2022-12-31T16:58:59.802Z,100017.34
2022-12-31T17:01:46.219Z,100020.81
2022-12-31T17:04:31.570Z,100022.53
2022-12-31T17:07:32.258Z,100006.97
2022-12-31T17:10:26.892Z,100014.81
2022-12-31T17:13:34.727Z,100000.91
2022-12-31T17:16:20.149Z,99990.47
2022-12-31T17:19:05.503Z,99993.09
2022-12-31T17:21:50.955Z,99993.91
2022-12-31T17:24:38.090Z,99986.88
2022-12-31T17:27:23.390Z,99973.84
2022-12-31T17:30:30.313Z,99973.94
2022-12-31T17:33:21.761Z,99952.91
2022-12-31T17:36:20.114Z,99939.81
2022-12-31T17:39:22.842Z,99912.44
2022-12-31T17:42:09.075Z,99895.31
2022-12-31T17:44:56.802Z,99886.59
2022-12-31T17:47:47.048Z,99893.44
2022-12-31T17:50:32.393Z,99873.25
2022-12-31T17:53:18.719Z,99869.03
2022-12-31T17:56:07.381Z,99876.00
2022-12-31T17:58:53.819Z,99847.16
2022-12-31T18:01:39.202Z,99848.25
2022-12-31T18:04:24.459Z,99825.47
2022-12-31T18:07:09.316Z,99835.09
2022-12-31T18:09:54.280Z,99828.84
2022-12-31T18:12:40.030Z,99820.00
2022-12-31T18:15:25.122Z,99803.31
2022-12-31T18:18:25.536Z,99811.41
2022-12-31T18:21:22.228Z,99822.59
2022-12-31T18:24:13.360Z,99808.47
2022-12-31T18:26:58.365Z,99825.41
2022-12-31T18:29:43.780Z,99805.22
2022-12-31T18:32:30.907Z,99814.97
2022-12-31T18:36:07.786Z,99824.72
2022-12-31T18:38:24.506Z,99835.09
2022-12-31T18:41:27.301Z,99819.34
2022-12-31T18:44:14.873Z,99813.03
2022-12-31T18:47:00.111Z,99818.38
2022-12-31T18:49:45.745Z,99801.03
2022-12-31T18:52:30.802Z,99778.25
2022-12-31T18:55:24.331Z,99785.50
2022-12-31T18:58:10.921Z,99792.41
2022-12-31T19:00:56.087Z,99808.75
2022-12-31T19:03:41.527Z,99817.53
2022-12-31T19:06:27.802Z,99802.91
2022-12-31T19:09:30.991Z,99813.66
2022-12-31T19:12:18.193Z,99815.22
2022-12-31T19:15:27.311Z,99817.03
2022-12-31T19:18:12.811Z,99790.97
2022-12-31T19:20:58.071Z,99782.97
2022-12-31T19:23:44.303Z,99790.19
2022-12-31T19:26:29.361Z,99771.13
2022-12-31T19:29:26.028Z,99767.41
2022-12-31T19:32:11.360Z,99744.81
2022-12-31T19:34:56.548Z,99738.66
2022-12-31T19:37:43.053Z,99714.25
2022-12-31T19:40:30.376Z,99715.19
2022-12-31T19:43:18.239Z,99705.50
2022-12-31T19:46:03.852Z,99702.09
2022-12-31T19:48:48.970Z,99684.59
2022-12-31T19:51:34.001Z,99688.75
2022-12-31T19:54:19.509Z,99688.78
2022-12-31T19:57:04.911Z,99690.56
2022-12-31T19:59:49.917Z,99695.78
2022-12-31T20:02:35.324Z,99695.00
2022-12-31T20:05:20.280Z,99696.75
2022-12-31T20:08:05.754Z,99713.25
2022-12-31T20:10:50.855Z,99714.22
2022-12-31T20:13:36.754Z,99715.19
2022-12-31T20:16:24.050Z,99730.84
2022-12-31T20:19:10.028Z,99736.13
2022-12-31T20:21:55.766Z,99739.88
2022-12-31T20:24:40.871Z,99744.09
2022-12-31T20:27:25.775Z,99750.06
2022-12-31T20:30:11.042Z,99739.56
2022-12-31T20:32:56.259Z,99732.78
2022-12-31T20:35:41.679Z,99753.91
2022-12-31T20:38:27.776Z,99761.50
2022-12-31T20:41:16.486Z,99741.34
2022-12-31T20:44:01.898Z,99747.50
2022-12-31T20:46:47.076Z,99750.00
2022-12-31T20:50:09.297Z,99722.41
2022-12-31T20:52:37.461Z,99722.66
2022-12-31T20:55:22.675Z,99723.34
2022-12-31T20:58:08.090Z,99710.22
2022-12-31T21:00:53.513Z,99712.81
2022-12-31T21:06:46.126Z,99726.59
2022-12-31T21:09:31.876Z,99724.13
2022-12-31T21:12:17.233Z,99724.81
2022-12-31T21:15:02.270Z,99719.59
2022-12-31T21:17:47.541Z,99700.34
2022-12-31T21:20:32.421Z,99707.53
2022-12-31T21:23:19.373Z,99702.81
2022-12-31T21:26:05.361Z,99711.78
2022-12-31T21:28:50.517Z,99722.78
2022-12-31T21:31:35.870Z,99707.41
2022-12-31T21:34:21.438Z,99706.34
2022-12-31T21:37:06.356Z,99720.44
2022-12-31T21:39:51.869Z,99728.81
2022-12-31T21:42:37.189Z,99744.91
2022-12-31T21:45:22.676Z,99723.38
2022-12-31T21:48:11.235Z,99724.75
2022-12-31T21:51:07.216Z,99746.78
2022-12-31T21:53:52.592Z,99756.44
2022-12-31T21:56:37.840Z,99764.19
2022-12-31T21:59:22.742Z,99760.56
2022-12-31T22:02:10.743Z,99767.59
2022-12-31T22:05:05.860Z,99763.03
2022-12-31T22:07:55.948Z,99760.09
2022-12-31T22:10:50.312Z,99773.09
2022-12-31T22:13:38.183Z,99768.69
2022-12-31T22:16:23.557Z,99772.81
2022-12-31T22:19:08.968Z,99768.50
2022-12-31T22:21:54.226Z,99785.19
2022-12-31T22:24:39.555Z,99805.97
2022-12-31T22:27:29.323Z,99791.06
2022-12-31T22:30:14.908Z,99800.94
2022-12-31T22:33:00.905Z,99814.78
2022-12-31T22:36:04.315Z,99813.28
2022-12-31T22:38:50.921Z,99836.47
2022-12-31T22:41:36.375Z,99825.16
2022-12-31T22:44:21.694Z,99827.13
2022-12-31T22:47:07.071Z,99811.84
2022-12-31T22:49:52.377Z,99806.69
2022-12-31T22:52:37.725Z,99826.84
2022-12-31T22:55:22.556Z,99809.25
2022-12-31T22:58:07.998Z,99840.59
2022-12-31T23:00:53.955Z,99811.53
2022-12-31T23:03:41.223Z,99839.72
2022-12-31T23:06:26.471Z,99828.44
2022-12-31T23:09:13.377Z,99824.00
2022-12-31T23:11:58.721Z,99827.47
2022-12-31T23:14:43.981Z,99819.13
2022-12-31T23:17:32.031Z,99844.19
2022-12-31T23:20:20.443Z,99816.28
2022-12-31T23:23:06.320Z,99815.31
2022-12-31T23:25:52.419Z,99824.97
2022-12-31T23:28:37.465Z,99834.50
2022-12-31T23:31:22.362Z,99845.81
2022-12-31T23:34:08.551Z,99835.44
2022-12-31T23:36:54.373Z,99836.13
2022-12-31T23:39:39.874Z,99813.19
2022-12-31T23:42:24.861Z,99809.78
2022-12-31T23:45:10.438Z,99812.31
2022-12-31T23:47:55.410Z,99823.09
2022-12-31T23:50:40.882Z,99827.38
2022-12-31T23:53:26.040Z,99831.75
2022-12-31T23:56:23.021Z,99815.84
2022-12-31T23:59:10.791Z,99817.41
